Time;durP1;ratioP1;P1;durP2;ratioP2;P2;SDS_P1;SDS_P2;PMS_P1;PMS_P2;Temp;Humidity;BMP_temperature;BMP_pressure;BME280_temperature;BME280_humidity;BME280_pressure;Samples;Min_cycle;Max_cycle;Signal;HPM_P1;HPM_P2
2023/04/28 00:00:51;;;;;;;13.48;11.70;;;;;;;11.72;100.00;99596.44;5111211;27;20054;-78
2023/04/28 00:03:17;;;;;;;13.40;11.80;;;;;;;11.71;100.00;99601.91;5114361;27;20031;-78
2023/04/28 00:05:43;;;;;;;13.32;11.82;;;;;;;11.66;100.00;99600.63;5113668;27;20035;-78
2023/04/28 00:08:09;;;;;;;12.10;9.93;;;;;;;11.68;100.00;99602.25;5133074;27;20118;-78
2023/04/28 00:10:34;;;;;;;15.88;11.73;;;;;;;11.68;100.00;99602.25;5095073;27;20087;-78
2023/04/28 00:13:00;;;;;;;13.35;11.95;;;;;;;11.69;100.00;99604.72;5111264;27;20043;-78
2023/04/28 00:15:26;;;;;;;17.55;12.55;;;;;;;11.73;100.00;99613.16;5110677;27;20700;-78
2023/04/28 00:17:53;;;;;;;13.70;11.57;;;;;;;11.72;100.00;99606.22;5119971;27;20059;-78
2023/04/28 00:20:18;;;;;;;12.27;10.55;;;;;;;11.71;100.00;99609.84;5108700;27;20318;-78
2023/04/28 00:22:44;;;;;;;13.18;10.85;;;;;;;11.70;100.00;99611.69;5128020;27;20518;-78
2023/04/28 00:25:10;;;;;;;13.88;12.10;;;;;;;11.68;100.00;99605.75;5106540;27;20041;-78
2023/04/28 00:27:36;;;;;;;14.07;11.55;;;;;;;11.64;100.00;99601.78;5106806;28;20043;-75
2023/04/28 00:30:02;;;;;;;12.90;11.60;;;;;;;11.60;100.00;99603.13;5095259;27;20068;-75
2023/04/28 00:32:30;;;;;;;15.35;11.90;;;;;;;11.55;100.00;99603.63;5091257;27;20027;-78
2023/04/28 00:34:56;;;;;;;13.35;11.75;;;;;;;11.54;100.00;99610.78;5110939;27;20042;-77
2023/04/28 00:37:22;;;;;;;14.57;12.13;;;;;;;11.51;100.00;99618.22;5112332;27;20031;-78
2023/04/28 00:39:53;;;;;;;15.32;11.90;;;;;;;11.52;100.00;99611.91;5113014;27;20042;-78
2023/04/28 00:42:18;;;;;;;13.93;11.20;;;;;;;11.51;100.00;99613.75;5111350;27;20050;-77
2023/04/28 00:44:45;;;;;;;16.48;11.23;;;;;;;11.51;100.00;99612.94;5111651;27;20026;-78
2023/04/28 00:47:12;;;;;;;12.90;11.70;;;;;;;11.52;100.00;99623.34;5097021;27;20872;-78
2023/04/28 00:49:38;;;;;;;13.93;10.85;;;;;;;11.55;100.00;99619.50;5097321;27;20027;-77
2023/04/28 00:52:05;;;;;;;12.30;10.35;;;;;;;11.61;100.00;99618.03;5112490;27;20110;-77
2023/04/28 00:54:33;;;;;;;11.40;10.25;;;;;;;11.63;100.00;99638.03;5108957;27;20046;-77
2023/04/28 00:57:01;;;;;;;12.23;11.02;;;;;;;11.64;100.00;99625.63;5115769;27;20395;-77
2023/04/28 00:59:28;;;;;;;12.23;10.80;;;;;;;11.65;100.00;99629.91;5108034;27;20034;-77
2023/04/28 01:01:54;;;;;;;12.05;10.80;;;;;;;11.65;100.00;99630.75;5113400;27;20027;-77
2023/04/28 01:04:20;;;;;;;14.88;10.90;;;;;;;11.66;100.00;99635.03;5111677;27;20499;-77
2023/04/28 01:06:48;;;;;;;12.45;11.15;;;;;;;11.66;100.00;99629.75;5093930;27;20030;-77
2023/04/28 01:09:14;;;;;;;12.23;10.38;;;;;;;11.65;100.00;99641.34;5100654;27;20514;-78
2023/04/28 01:11:40;;;;;;;13.32;10.60;;;;;;;11.65;100.00;99640.50;5113850;27;20050;-77
2023/04/28 01:14:10;;;;;;;11.98;10.57;;;;;;;11.67;100.00;99638.50;5099827;27;20500;-78
2023/04/28 01:16:39;;;;;;;11.02;9.93;;;;;;;11.71;100.00;99639.81;5114264;27;20043;-77
2023/04/28 01:19:21;;;;;;;11.88;9.43;;;;;;;11.76;100.00;99641.94;5099682;27;20031;-78
2023/04/28 01:21:51;;;;;;;11.30;9.27;;;;;;;11.71;100.00;99642.47;5113746;27;20066;-77
2023/04/28 01:24:19;;;;;;;10.27;9.02;;;;;;;11.69;100.00;99647.09;5109335;27;20480;-78
2023/04/28 01:26:45;;;;;;;11.38;10.25;;;;;;;11.70;100.00;99646.09;5111171;27;20157;-78
2023/04/28 01:29:11;;;;;;;13.40;11.70;;;;;;;11.73;100.00;99650.22;5093477;28;20023;-77
2023/04/28 01:31:37;;;;;;;16.88;13.73;;;;;;;11.71;100.00;99649.56;5087825;27;20042;-77
2023/04/28 01:34:03;;;;;;;19.10;13.68;;;;;;;11.72;100.00;99657.34;5113122;27;20027;-77
2023/04/28 01:36:29;;;;;;;14.77;13.15;;;;;;;11.69;100.00;99649.72;5092642;27;20418;-77
2023/04/28 01:38:55;;;;;;;16.75;14.35;;;;;;;11.69;100.00;99656.88;5094463;27;20063;-77
2023/04/28 01:41:21;;;;;;;16.75;13.77;;;;;;;11.69;100.00;99659.53;5111834;27;20111;-77
2023/04/28 01:43:47;;;;;;;16.52;14.10;;;;;;;11.68;100.00;99658.69;5102626;27;20099;-77
2023/04/28 01:46:13;;;;;;;16.92;14.50;;;;;;;11.67;100.00;99657.03;5108616;27;20498;-77
2023/04/28 01:48:38;;;;;;;16.40;14.50;;;;;;;11.66;100.00;99671.25;5129307;27;20062;-77
2023/04/28 01:51:05;;;;;;;22.17;15.82;;;;;;;11.65;100.00;99665.16;5109668;27;20032;-77
2023/04/28 01:53:31;;;;;;;17.10;15.27;;;;;;;11.65;100.00;99673.09;5110174;27;20034;-77
2023/04/28 01:55:57;;;;;;;16.40;14.32;;;;;;;11.66;100.00;99671.25;5113690;27;20023;-77
2023/04/28 01:58:24;;;;;;;16.92;15.02;;;;;;;11.66;100.00;99673.91;5092068;28;20031;-77
2023/04/28 02:00:50;;;;;;;18.75;15.35;;;;;;;11.66;100.00;99673.91;5090062;27;20051;-77
2023/04/28 02:03:18;;;;;;;17.42;14.65;;;;;;;11.63;100.00;99668.94;5110178;27;20411;-77
2023/04/28 02:05:43;;;;;;;15.68;14.00;;;;;;;11.63;100.00;99668.94;5130738;27;20044;-77
2023/04/28 02:08:10;;;;;;;20.95;15.35;;;;;;;11.58;100.00;99674.75;5113512;27;20031;-77
2023/04/28 02:10:35;;;;;;;16.27;14.27;;;;;;;11.53;100.00;99677.91;5111988;27;20035;-77
2023/04/28 02:13:01;;;;;;;15.63;13.93;;;;;;;11.51;100.00;99671.97;5095709;27;20027;-77
2023/04/28 02:15:27;;;;;;;17.77;14.27;;;;;;;11.52;100.00;99681.56;5110104;27;20092;-77
2023/04/28 02:17:53;;;;;;;16.13;14.43;;;;;;;11.50;100.00;99680.91;5106153;27;20031;-77
2023/04/28 02:20:18;;;;;;;15.88;14.15;;;;;;;11.49;100.00;99678.41;5109914;27;20034;-77
2023/04/28 02:22:44;;;;;;;15.23;13.60;;;;;;;11.47;100.00;99673.28;5112511;27;20042;-77
2023/04/28 02:25:11;;;;;;;17.33;13.98;;;;;;;11.49;100.00;99681.06;5109358;27;20031;-77
2023/04/28 02:27:37;;;;;;;15.70;14.18;;;;;;;11.49;100.00;99689.84;5122735;27;20044;-77
2023/04/28 02:30:04;;;;;;;17.55;13.82;;;;;;;11.50;100.00;99686.19;5107608;27;20035;-77
2023/04/28 02:32:31;;;;;;;15.43;13.52;;;;;;;11.51;100.00;99687.03;5083024;28;20024;-77
2023/04/28 02:34:56;;;;;;;15.55;13.32;;;;;;;11.50;100.00;99688.84;5106200;27;20034;-77
2023/04/28 02:37:23;;;;;;;14.57;13.07;;;;;;;11.51;100.00;99684.38;5111405;27;20031;-77
2023/04/28 02:39:50;;;;;;;17.17;13.77;;;;;;;11.50;100.00;99691.47;5091121;27;20063;-77
2023/04/28 02:42:15;;;;;;;17.05;14.07;;;;;;;11.52;100.00;99701.91;5095470;27;20035;-77
2023/04/28 02:44:41;;;;;;;15.55;13.73;;;;;;;11.54;100.00;99700.75;5111631;27;20042;-77
2023/04/28 02:47:07;;;;;;;15.63;14.02;;;;;;;11.56;100.00;99707.69;5103840;28;20028;-77
2023/04/28 02:49:33;;;;;;;16.00;13.98;;;;;;;11.57;100.00;99709.34;5109598;27;20557;-77
2023/04/28 02:52:00;;;;;;;14.98;13.05;;;;;;;11.57;100.00;99715.47;5105175;27;20031;-77
2023/04/28 02:54:26;;;;;;;15.43;13.02;;;;;;;11.58;100.00;99719.75;5126995;27;20025;-77
2023/04/28 02:56:57;;;;;;;14.13;12.63;;;;;;;11.61;100.00;99711.47;5111316;27;20031;-77
2023/04/28 02:59:23;;;;;;;14.10;12.70;;;;;;;11.60;100.00;99714.28;5110874;27;20039;-78
2023/04/28 03:01:50;;;;;;;16.35;12.95;;;;;;;11.60;100.00;99711.63;5087735;28;20048;-78
2023/04/28 03:04:17;;;;;;;15.25;13.45;;;;;;;11.60;100.00;99712.47;5087089;28;20031;-78
2023/04/28 03:06:43;;;;;;;14.10;12.60;;;;;;;11.60;100.00;99707.19;5088881;28;20040;-78
2023/04/28 03:09:10;;;;;;;14.00;11.65;;;;;;;11.59;100.00;99716.13;5080242;28;20020;-78
2023/04/28 03:11:35;;;;;;;15.25;12.73;;;;;;;11.60;100.00;99717.78;5083383;28;20203;-78
2023/04/28 03:14:02;;;;;;;15.25;12.43;;;;;;;11.61;100.00;99721.25;5081615;28;20107;-78
2023/04/28 03:16:28;;;;;;;15.43;12.27;;;;;;;11.62;100.00;99714.94;5084701;28;20079;-78
2023/04/28 03:18:54;;;;;;;16.15;13.07;;;;;;;11.61;100.00;99719.41;5067044;28;20028;-78
2023/04/28 03:21:20;;;;;;;16.00;12.82;;;;;;;11.61;100.00;99718.59;5083428;28;20051;-78
2023/04/28 03:23:46;;;;;;;16.45;13.00;;;;;;;11.59;100.00;99726.72;5083549;28;20698;-78
2023/04/28 03:26:12;;;;;;;14.20;12.13;;;;;;;11.58;100.00;99726.88;5058769;28;20527;-78
2023/04/28 03:28:38;;;;;;;13.52;12.13;;;;;;;11.58;100.00;99729.53;5063821;28;20032;-78
2023/04/28 03:31:04;;;;;;;21.48;13.80;;;;;;;11.56;100.00;99735.00;5055385;28;20047;-78
2023/04/28 03:33:30;;;;;;;15.73;12.65;;;;;;;11.56;100.00;99728.88;5081325;28;20021;-78
2023/04/28 03:35:57;;;;;;;18.65;12.93;;;;;;;11.56;100.00;99732.34;5069112;28;20028;-78
2023/04/28 03:38:23;;;;;;;21.27;13.75;;;;;;;11.55;100.00;99730.69;5082297;28;20031;-78
2023/04/28 03:40:50;;;;;;;17.90;13.48;;;;;;;11.54;100.00;99735.16;5073451;28;20032;-78
2023/04/28 03:43:36;;;;;;;15.80;13.30;;;;;;;11.53;100.00;99732.69;5082983;28;20040;-78
2023/04/28 03:46:21;;;;;;;14.85;13.13;;;;;;;11.51;100.00;99737.31;5085570;28;20055;-78
2023/04/28 03:48:48;;;;;;;18.02;13.90;;;;;;;11.53;100.00;99743.28;5076385;28;20036;-78
2023/04/28 03:51:14;;;;;;;17.65;13.88;;;;;;;11.52;100.00;99736.31;5068907;28;20024;-78
2023/04/28 03:53:40;;;;;;;14.93;13.35;;;;;;;11.50;100.00;99736.47;5076519;28;20040;-78
2023/04/28 03:56:06;;;;;;;18.02;13.88;;;;;;;11.51;100.00;99740.78;5080700;28;20380;-78
2023/04/28 03:58:32;;;;;;;15.57;14.02;;;;;;;11.51;100.00;99738.16;5066194;28;20032;-78
2023/04/28 04:01:00;;;;;;;16.98;14.27;;;;;;;11.51;100.00;99742.59;5094468;28;20039;-78
2023/04/28 04:03:26;;;;;;;15.10;13.57;;;;;;;11.49;100.00;99737.47;5099058;28;20042;-78
2023/04/28 04:05:55;;;;;;;18.45;13.98;;;;;;;11.50;100.00;99749.72;5081544;28;20043;-78
2023/04/28 04:08:21;;;;;;;15.57;13.30;;;;;;;11.47;100.00;99739.47;5071751;28;20051;-78
2023/04/28 04:10:47;;;;;;;16.70;14.48;;;;;;;11.47;100.00;99743.91;5086682;28;20040;-78
2023/04/28 04:13:13;;;;;;;15.52;13.88;;;;;;;11.45;100.00;99737.97;5101628;28;20031;-78
2023/04/28 04:15:40;;;;;;;20.27;15.18;;;;;;;11.41;100.00;99738.31;5101352;28;20028;-78
2023/04/28 04:18:07;;;;;;;16.75;14.43;;;;;;;11.41;100.00;99740.97;5105332;28;20112;-78
2023/04/28 04:20:54;;;;;;;15.43;13.23;;;;;;;11.43;100.00;99742.59;5092167;28;20040;-78
2023/04/28 04:23:21;;;;;;;15.07;12.82;;;;;;;11.43;100.00;99743.44;5076063;28;20093;-78
2023/04/28 04:25:48;;;;;;;17.90;14.30;;;;;;;11.46;100.00;99742.28;5097669;28;20035;-78
2023/04/28 04:28:14;;;;;;;15.43;13.75;;;;;;;11.46;100.00;99742.28;5092183;28;20082;-78
2023/04/28 04:30:42;;;;;;;16.23;13.38;;;;;;;11.47;100.00;99746.56;5079478;28;20032;-78
2023/04/28 04:33:08;;;;;;;16.55;13.70;;;;;;;11.48;100.00;99745.59;5101671;28;20024;-78
2023/04/28 04:35:34;;;;;;;16.02;14.35;;;;;;;11.47;100.00;99750.03;5099374;28;20031;-78
2023/04/28 04:38:02;;;;;;;17.38;14.32;;;;;;;11.47;100.00;99757.97;5103875;28;20032;-78
2023/04/28 04:40:27;;;;;;;16.27;14.07;;;;;;;11.47;100.00;99760.63;5101907;28;20039;-78
2023/04/28 04:42:54;;;;;;;16.63;14.10;;;;;;;11.46;100.00;99766.91;5087708;28;20040;-78
2023/04/28 04:45:20;;;;;;;15.57;13.85;;;;;;;11.44;100.00;99763.59;5105444;28;20032;-78
2023/04/28 04:47:47;;;;;;;14.93;13.43;;;;;;;11.42;100.00;99768.22;5093995;28;20054;-78
2023/04/28 04:50:13;;;;;;;15.52;13.93;;;;;;;11.43;100.00;99774.34;5089021;28;20047;-78
2023/04/28 04:52:39;;;;;;;15.43;13.57;;;;;;;11.44;100.00;99776.84;5084265;28;20469;-78
2023/04/28 04:55:06;;;;;;;15.75;13.77;;;;;;;11.44;100.00;99779.47;5091936;28;20387;-78
2023/04/28 04:57:32;;;;;;;15.55;12.95;;;;;;;11.40;100.00;99778.97;5100192;28;20042;-78
2023/04/28 05:00:01;;;;;;;14.85;13.27;;;;;;;11.41;100.00;99783.31;5105976;27;20077;-78
2023/04/28 05:02:27;;;;;;;15.07;13.40;;;;;;;11.38;100.00;99782.81;5111965;27;20391;-78
2023/04/28 05:04:53;;;;;;;14.60;12.65;;;;;;;11.38;100.00;99782.81;5098275;27;20048;-78
2023/04/28 05:07:19;;;;;;;14.20;11.85;;;;;;;11.38;100.00;99788.94;5112574;27;20050;-78
2023/04/28 05:09:45;;;;;;;13.18;11.85;;;;;;;11.39;100.00;99795.03;5114310;27;20379;-78
2023/04/28 05:12:11;;;;;;;12.27;10.93;;;;;;;11.37;100.00;99789.09;5107690;27;20027;-78
2023/04/28 05:14:37;;;;;;;12.90;11.50;;;;;;;11.39;100.00;99790.56;5097964;28;20393;-78
2023/04/28 05:17:03;;;;;;;12.13;10.73;;;;;;;11.39;100.00;99800.31;5122520;27;20035;-78
2023/04/28 05:19:35;;;;;;;10.75;9.65;;;;;;;11.38;100.00;99801.31;5103534;27;20086;-78
2023/04/28 05:22:02;;;;;;;11.30;10.20;;;;;;;11.38;100.00;99804.81;5127609;27;20035;-78
2023/04/28 05:24:28;;;;;;;11.75;10.55;;;;;;;11.39;100.00;99802.97;5096423;28;20077;-78
2023/04/28 05:26:57;;;;;;;10.38;9.38;;;;;;;11.44;100.00;99808.59;5107742;27;20370;-78
2023/04/28 05:29:23;;;;;;;13.55;10.98;;;;;;;11.39;100.00;99809.09;5085091;27;20038;-78
2023/04/28 05:31:49;;;;;;;11.80;10.55;;;;;;;11.43;100.00;99811.41;5117960;27;20023;-78
2023/04/28 05:34:15;;;;;;;10.32;9.27;;;;;;;11.46;100.00;99813.72;5110187;27;20023;-78
2023/04/28 05:36:41;;;;;;;10.95;9.75;;;;;;;11.46;100.00;99819.84;5112530;27;20077;-78
2023/04/28 05:39:09;;;;;;;10.55;9.15;;;;;;;11.45;100.00;99826.13;5092289;27;20035;-78
2023/04/28 05:41:37;;;;;;;11.68;9.23;;;;;;;11.45;100.00;99825.31;5112807;27;20061;-78
2023/04/28 05:44:05;;;;;;;10.40;9.23;;;;;;;11.46;100.00;99822.50;5110705;27;20395;-79
2023/04/28 05:46:31;;;;;;;9.60;8.35;;;;;;;11.47;100.00;99825.94;5107612;27;20506;-78
2023/04/28 05:48:59;;;;;;;10.05;8.60;;;;;;;11.50;100.00;99839.69;5096595;27;20050;-78
2023/04/28 05:51:26;;;;;;;9.65;8.57;;;;;;;11.49;100.00;99838.03;5111911;27;20070;-78
2023/04/28 05:53:52;;;;;;;8.60;7.65;;;;;;;11.50;100.00;99844.97;5093400;28;20099;-78
2023/04/28 05:56:19;;;;;;;11.90;8.52;;;;;;;11.53;100.00;99854.44;5102060;27;20028;-77
2023/04/28 05:58:46;;;;;;;9.45;8.40;;;;;;;11.54;100.00;99858.72;5085535;27;20487;-78
2023/04/28 06:01:12;;;;;;;10.27;7.80;;;;;;;11.54;100.00;99858.72;5095819;27;20047;-78
2023/04/28 06:03:41;;;;;;;9.80;7.68;;;;;;;11.55;100.00;99865.66;5109810;27;20376;-79
2023/04/28 06:06:10;;;;;;;9.38;7.90;;;;;;;11.56;100.00;99855.91;5107991;27;20027;-78
2023/04/28 06:08:37;;;;;;;11.38;8.07;;;;;;;11.52;100.00;99861.53;5117948;27;20114;-78
2023/04/28 06:11:04;;;;;;;11.05;8.00;;;;;;;11.54;100.00;99872.78;5101223;28;20031;-79
2023/04/28 06:13:30;;;;;;;8.00;7.10;;;;;;;11.52;100.00;99866.81;5098467;27;20023;-79
2023/04/28 06:15:56;;;;;;;7.57;6.25;;;;;;;11.55;100.00;99876.25;5110339;27;20475;-78
2023/04/28 06:18:23;;;;;;;7.55;5.93;;;;;;;11.56;100.00;99872.63;5096723;27;20592;-79
2023/04/28 06:20:49;;;;;;;6.28;5.38;;;;;;;11.57;100.00;99878.72;5124900;27;20079;-78
2023/04/28 06:23:15;;;;;;;5.32;4.63;;;;;;;11.58;100.00;99873.25;5099057;27;20027;-79
2023/04/28 06:25:46;;;;;;;6.68;3.97;;;;;;;11.62;100.00;99884.34;5109213;27;20035;-78
2023/04/28 06:28:13;;;;;;;5.88;3.60;;;;;;;11.65;100.00;99889.31;5110005;27;20038;-78
2023/04/28 06:30:40;;;;;;;5.05;3.30;;;;;;;11.65;100.00;99884.03;5111294;27;20084;-78
2023/04/28 06:33:06;;;;;;;4.50;3.30;;;;;;;11.65;100.00;99892.81;5127880;27;20023;-79
2023/04/28 06:35:35;;;;;;;3.50;2.97;;;;;;;11.64;100.00;99887.69;5107920;27;20035;-78
2023/04/28 06:38:02;;;;;;;2.75;2.45;;;;;;;11.66;100.00;99896.25;5107880;27;20084;-78
2023/04/28 06:40:28;;;;;;;3.13;2.63;;;;;;;11.67;100.00;99900.59;5098888;27;20035;-78
2023/04/28 06:42:56;;;;;;;2.53;2.28;;;;;;;11.68;100.00;99910.16;5097619;27;20074;-78
2023/04/28 06:45:34;;;;;;;2.58;2.38;;;;;;;11.68;100.00;99912.81;5053260;27;20404;-76
2023/04/28 06:48:02;;;;;;;2.95;2.50;;;;;;;11.71;100.00;99909.84;5070766;27;20077;-78
2023/04/28 06:50:28;;;;;;;2.33;2.03;;;;;;;11.73;100.00;99922.91;5106385;27;20156;-78
2023/04/28 06:52:53;;;;;;;2.95;2.38;;;;;;;11.74;100.00;99921.91;5092137;27;20106;-78
2023/04/28 06:55:20;;;;;;;3.80;2.22;;;;;;;11.77;100.00;99926.88;5088665;27;20117;-78
2023/04/28 06:57:46;;;;;;;2.85;2.60;;;;;;;11.81;100.00;99928.22;5108699;27;20046;-78
2023/04/28 07:00:13;;;;;;;1.75;1.48;;;;;;;11.86;100.00;99925.06;5109191;28;20043;-78
2023/04/28 07:02:38;;;;;;;3.60;2.00;;;;;;;11.86;100.00;99938.31;5107704;27;20082;-78
2023/04/28 07:05:05;;;;;;;3.42;2.58;;;;;;;11.87;100.00;99943.44;5115205;27;20032;-78
2023/04/28 07:07:31;;;;;;;3.00;2.65;;;;;;;11.89;100.00;99943.28;5111924;27;20143;-75
2023/04/28 07:09:57;;;;;;;1.70;1.60;;;;;;;11.94;100.00;99946.25;5094886;28;20035;-75
2023/04/28 07:12:23;;;;;;;1.58;1.23;;;;;;;11.96;100.00;99943.44;5105281;27;20038;-78
2023/04/28 07:14:50;;;;;;;1.42;1.23;;;;;;;11.99;100.00;99948.41;5107044;28;20038;-78
2023/04/28 07:17:16;;;;;;;3.28;1.10;;;;;;;12.03;100.00;99955.03;5088629;28;20100;-75
2023/04/28 07:19:42;;;;;;;1.40;1.30;;;;;;;12.06;100.00;99961.78;5108641;28;20031;-75
2023/04/28 07:22:07;;;;;;;2.25;1.52;;;;;;;12.09;100.00;99953.56;5106664;28;20035;-78
2023/04/28 07:24:33;;;;;;;1.67;1.42;;;;;;;12.12;100.00;99961.19;5103821;28;20028;-78
2023/04/28 07:27:00;;;;;;;2.10;1.30;;;;;;;12.14;100.00;99964.47;5116873;28;20031;-78
2023/04/28 07:29:27;;;;;;;1.10;1.00;;;;;;;12.12;100.00;99969.94;5102661;28;20027;-79
2023/04/28 07:31:53;;;;;;;1.90;1.58;;;;;;;12.10;100.00;99971.13;5105306;28;20058;-78
2023/04/28 07:34:19;;;;;;;1.15;0.95;;;;;;;12.08;100.00;99968.63;5121250;28;20306;-78
2023/04/28 07:36:45;;;;;;;1.55;1.45;;;;;;;12.13;100.00;99982.22;5113639;28;20076;-78
2023/04/28 07:39:11;;;;;;;1.80;1.27;;;;;;;12.17;100.00;99982.69;5113968;28;20114;-78
2023/04/28 07:41:37;;;;;;;1.20;1.10;;;;;;;12.22;100.00;99985.69;5106118;28;20117;-78
2023/04/28 07:44:05;;;;;;;1.33;1.23;;;;;;;12.30;100.00;99976.06;5085916;28;20458;-78
2023/04/28 07:46:31;;;;;;;2.20;1.25;;;;;;;12.31;100.00;99990.97;5125063;28;20035;-78
2023/04/28 07:48:57;;;;;;;1.15;1.05;;;;;;;12.33;100.00;99986.31;5103204;28;20047;-78
2023/04/28 07:51:23;;;;;;;1.15;0.70;;;;;;;12.32;100.00;99985.50;5115277;28;20023;-78
2023/04/28 07:53:49;;;;;;;1.10;0.95;;;;;;;12.30;100.00;99992.78;5118128;28;20077;-78
2023/04/28 07:56:16;;;;;;;0.70;0.70;;;;;;;12.27;100.00;100001.06;5110234;28;20027;-78
2023/04/28 07:58:41;;;;;;;0.88;0.70;;;;;;;12.23;100.00;100000.56;5097760;28;20066;-78
2023/04/28 08:01:07;;;;;;;0.85;0.80;;;;;;;12.20;100.00;100010.69;5090916;28;20506;-78
2023/04/28 08:03:33;;;;;;;2.35;0.90;;;;;;;12.26;100.00;100002.06;5094801;28;20490;-78
2023/04/28 08:05:59;;;;;;;0.82;0.70;;;;;;;12.29;100.00;100007.03;5104631;28;20028;-78
2023/04/28 08:08:26;;;;;;;1.00;0.60;;;;;;;12.28;100.00;100013.31;5119634;28;20084;-78
2023/04/28 08:10:53;;;;;;;0.70;0.70;;;;;;;12.32;100.00;100016.47;5096539;28;20036;-78
2023/04/28 08:13:19;;;;;;;0.60;0.60;;;;;;;12.34;100.00;100015.31;5101552;27;20023;-78
2023/04/28 08:15:46;;;;;;;0.60;0.60;;;;;;;12.37;100.00;100020.31;5103491;27;20398;-78
2023/04/28 08:18:12;;;;;;;0.70;0.60;;;;;;;12.37;100.00;100019.47;5114705;27;20031;-78
2023/04/28 08:20:38;;;;;;;3.67;0.73;;;;;;;12.40;100.00;100024.44;5131628;27;20602;-78
2023/04/28 08:23:04;;;;;;;0.47;0.32;;;;;;;12.47;100.00;100029.91;5109806;27;20043;-78
2023/04/28 08:25:29;;;;;;;0.75;0.40;;;;;;;12.51;100.00;100026.75;5108595;27;20057;-78
2023/04/28 08:27:56;;;;;;;0.65;0.45;;;;;;;12.55;100.00;100023.75;5128518;27;20118;-78
2023/04/28 08:30:22;;;;;;;0.47;0.47;;;;;;;12.57;100.00;100025.22;5102449;27;20040;-78
2023/04/28 08:32:47;;;;;;;0.40;0.30;;;;;;;12.71;100.00;100034.31;5104560;27;20035;-78
2023/04/28 08:35:14;;;;;;;1.40;0.50;;;;;;;12.80;100.00;100034.31;5094136;27;20031;-78
2023/04/28 08:37:40;;;;;;;0.22;0.22;;;;;;;12.86;100.00;100029.16;5091354;27;20603;-74
2023/04/28 08:40:10;;;;;;;0.20;0.20;;;;;;;12.93;100.00;100036.44;5112401;27;20038;-75
2023/04/28 08:42:36;;;;;;;1.70;0.30;;;;;;;12.95;100.00;100040.56;5091909;27;20040;-75
2023/04/28 08:45:04;;;;;;;0.28;0.22;;;;;;;13.00;100.00;100038.25;5085937;27;20699;-75
2023/04/28 08:47:38;;;;;;;0.20;0.20;;;;;;;13.10;100.00;100046.00;5095577;28;20031;-78
2023/04/28 08:50:08;;;;;;;2.00;0.40;;;;;;;13.13;100.00;100045.66;5094799;27;20058;-78
2023/04/28 08:52:35;;;;;;;0.40;0.38;;;;;;;13.23;100.00;100041.97;5110134;27;20039;-78
2023/04/28 08:55:06;;;;;;;0.40;0.40;;;;;;;13.36;100.00;100044.91;5126154;27;20479;-78
2023/04/28 08:57:37;;;;;;;0.40;0.40;;;;;;;13.48;100.00;100048.00;5104031;27;20372;-75
2023/04/28 09:00:04;;;;;;;0.20;0.20;;;;;;;13.48;100.00;100049.81;5109220;27;20104;-75
2023/04/28 09:02:31;;;;;;;0.80;0.30;;;;;;;13.48;100.00;100045.34;5108990;27;20080;-78
2023/04/28 09:04:57;;;;;;;0.35;0.30;;;;;;;13.55;100.00;100050.00;5122317;27;20101;-79
2023/04/28 09:07:23;;;;;;;2.72;0.20;;;;;;;13.55;100.00;100050.84;5103739;28;20042;-75
2023/04/28 09:09:48;;;;;;;0.38;0.15;;;;;;;13.53;100.00;100055.47;5110365;27;20023;-75
2023/04/28 09:12:15;;;;;;;0.65;0.20;;;;;;;13.47;100.00;100061.47;5104288;27;20055;-78
2023/04/28 09:14:41;;;;;;;0.55;0.20;;;;;;;13.39;100.00;100065.78;5111258;27;20490;-78
2023/04/28 09:17:11;;;;;;;0.25;0.20;;;;;;;13.35;100.00;100069.78;5126226;27;20030;-78
2023/04/28 09:19:41;;;;;;;0.60;0.30;;;;;;;13.25;100.00;100079.81;5108410;27;20042;-78
2023/04/28 09:22:07;;;;;;;0.30;0.20;;;;;;;13.14;100.00;100089.78;5127159;27;20043;-78
2023/04/28 09:24:35;;;;;;;0.80;0.20;;;;;;;13.12;100.00;100086.44;5106753;27;20020;-78
2023/04/28 09:27:06;;;;;;;0.40;0.20;;;;;;;13.14;100.00;100088.94;5110305;27;20039;-78
2023/04/28 09:29:33;;;;;;;0.63;0.30;;;;;;;13.13;100.00;100095.25;5109044;27;20038;-78
2023/04/28 09:32:17;;;;;;;0.60;0.38;;;;;;;13.23;100.00;100100.38;5127533;27;20038;-78
2023/04/28 09:34:52;;;;;;;1.75;1.05;;;;;;;13.35;100.00;100096.34;5117844;27;20054;-78
2023/04/28 09:37:20;;;;;;;2.08;0.80;;;;;;;13.44;100.00;100099.78;5090386;27;20054;-78
2023/04/28 09:39:49;;;;;;;1.63;0.90;;;;;;;13.59;100.00;100091.13;5120059;27;20062;-78
2023/04/28 09:42:43;;;;;;;0.60;0.50;;;;;;;13.68;100.00;100100.72;5110706;27;20035;-78
2023/04/28 09:45:15;;;;;;;0.10;0.10;;;;;;;13.62;100.00;100101.41;5119235;27;20031;-79
2023/04/28 09:47:45;;;;;;;2.38;0.10;;;;;;;13.59;100.00;100099.09;5109887;27;20043;-79
2023/04/28 09:50:15;;;;;;;0.32;0.08;;;;;;;13.55;100.00;100100.44;5089174;27;20102;-79
2023/04/28 09:52:52;;;;;;;0.20;0.10;;;;;;;13.56;100.00;100108.25;5109699;27;20035;-75
2023/04/28 09:55:19;;;;;;;0.43;0.10;;;;;;;13.56;100.00;100104.75;5121890;27;20028;-75
2023/04/28 09:57:46;;;;;;;0.50;0.10;;;;;;;13.57;100.00;100112.53;5104695;27;20499;-75
2023/04/28 10:00:13;;;;;;;0.00;0.00;;;;;;;13.58;100.00;100110.72;5098293;28;20048;-75
2023/04/28 10:02:40;;;;;;;1.35;0.20;;;;;;;13.65;100.00;100111.69;5065885;28;20040;-75
2023/04/28 10:05:11;;;;;;;0.40;0.17;;;;;;;13.82;100.00;100112.44;5086589;28;20074;-75
2023/04/28 10:07:38;;;;;;;0.65;0.10;;;;;;;13.84;100.00;100113.09;5083782;28;20476;-79
2023/04/28 10:10:06;;;;;;;0.20;0.10;;;;;;;13.89;100.00;100115.22;5084558;28;20562;-78
2023/04/28 10:12:33;;;;;;;1.45;0.10;;;;;;;13.94;100.00;100120.00;5079747;28;20051;-79
2023/04/28 10:15:00;;;;;;;0.10;0.10;;;;;;;13.93;100.00;100129.00;5075688;28;20034;-78
2023/04/28 10:17:28;;;;;;;0.30;0.20;;;;;;;13.86;100.00;100134.16;5085415;28;20040;-79
2023/04/28 10:19:54;;;;;;;0.10;0.00;;;;;;;13.85;100.00;100127.22;5084772;28;20027;-78
2023/04/28 10:22:31;;;;;;;0.25;0.20;;;;;;;13.89;100.00;100134.66;5081494;28;20056;-75
2023/04/28 10:25:34;;;;;;;0.10;0.10;;;;;;;13.91;100.00;100141.63;5083062;28;20115;-75
2023/04/28 10:28:04;;;;;;;0.20;0.13;;;;;;;14.02;100.00;100142.06;5065211;28;20127;-78
2023/04/28 10:30:30;;;;;;;0.10;0.10;;;;;;;14.09;100.00;100144.84;5083187;28;20032;-79
2023/04/28 10:33:05;;;;;;;0.20;0.17;;;;;;;14.20;100.00;100138.31;5019331;28;20085;-75
2023/04/28 10:35:31;;;;;;;1.43;0.10;;;;;;;14.32;100.00;100138.72;5055905;28;20421;-75
2023/04/28 10:38:14;;;;;;;0.82;0.25;;;;;;;14.44;100.00;100133.84;5080456;28;20094;-78
2023/04/28 10:40:53;;;;;;;0.40;0.10;;;;;;;14.46;100.00;100142.44;5082797;28;20101;-78
2023/04/28 10:43:25;;;;;;;0.50;0.10;;;;;;;14.38;100.00;100139.84;5074647;28;20064;-75
2023/04/28 10:45:51;;;;;;;0.00;0.00;;;;;;;14.27;100.00;100149.03;5070590;28;20500;-75
2023/04/28 10:48:21;;;;;;;0.20;0.10;;;;;;;14.21;100.00;100152.41;5079268;28;20123;-79
2023/04/28 10:51:02;;;;;;;0.10;0.10;;;;;;;14.24;100.00;100146.75;5082722;28;20043;-78
2023/04/28 10:53:43;;;;;;;0.00;0.00;;;;;;;14.23;100.00;100155.72;5066878;28;20031;-79
2023/04/28 10:56:15;;;;;;;0.00;0.00;;;;;;;14.16;100.00;100166.22;5082563;28;20454;-78
2023/04/28 10:58:44;;;;;;;0.15;0.03;;;;;;;14.14;100.00;100162.94;5077870;28;20032;-75
2023/04/28 11:01:25;;;;;;;3.10;0.20;;;;;;;14.16;100.00;100170.72;5092265;28;20040;-75
2023/04/28 11:04:02;;;;;;;0.00;0.00;;;;;;;14.03;100.00;100169.44;5102619;28;20031;-75
2023/04/28 11:06:33;;;;;;;0.10;0.10;;;;;;;14.01;100.00;100177.59;5099882;28;20039;-78
2023/04/28 11:09:02;;;;;;;0.10;0.00;;;;;;;14.02;100.00;100175.78;5099356;28;20071;-79
2023/04/28 11:11:34;;;;;;;0.20;0.00;;;;;;;14.04;100.00;100179.09;5103256;28;20031;-79
2023/04/28 11:14:16;;;;;;;0.20;0.03;;;;;;;14.04;100.00;100184.41;5086572;28;20096;-78
2023/04/28 11:16:58;;;;;;;1.40;0.10;;;;;;;14.05;100.00;100185.25;5096953;28;20036;-78